Time,TemperatureF,DewpointF,PressureIn,WindDirection,WindDirectionDegrees,WindSpeedMPH,WindSpeedGustMPH,Humidity,HourlyPrecipIn,Conditions,Clouds,dailyrainin,SoftwareType,DateUTC
2013-03-14 00:33:00,28.0,21.0,-100.00,North,-999,-999.0,-999.0,76,-99.99,,,-99.99,,2013-03-14 06:33:00,
2013-03-14 01:32:00,26.0,20.0,-100.00,North,-999,-999.0,-999.0,77,-99.99,,,-99.99,,2013-03-14 07:32:00,
2013-03-14 02:32:00,26.0,19.0,-100.00,North,-999,-999.0,-999.0,76,-99.99,,,-99.99,,2013-03-14 08:32:00,
2013-03-14 03:32:00,28.0,20.0,-100.00,North,-999,-999.0,-999.0,73,-99.99,,,-99.99,,2013-03-14 09:32:00,
2013-03-14 05:33:00,26.0,20.0,-100.00,North,-999,-999.0,-999.0,76,-99.99,,,-99.99,,2013-03-14 11:33:00,
2013-03-14 06:33:00,25.0,20.0,-100.00,North,-999,-999.0,-999.0,79,-99.99,,,-99.99,,2013-03-14 12:33:00,
2013-03-14 07:32:00,26.0,20.0,-100.00,North,-999,-999.0,-999.0,76,-99.99,,,-99.99,,2013-03-14 13:32:00,
2013-03-14 08:32:00,29.0,20.0,-100.00,North,-999,-999.0,-999.0,68,-99.99,,,-99.99,,2013-03-14 14:32:00,
2013-03-14 08:42:00,29.0,20.0,-100.00,North,-999,-999.0,-999.0,68,-99.99,,,-99.99,,2013-03-14 14:42:00,
2013-03-14 08:53:00,29.0,20.0,-100.00,North,-999,-999.0,-999.0,68,-99.99,,,-99.99,,2013-03-14 14:53:00,
2013-03-14 09:22:00,28.0,21.0,-100.00,North,-999,-999.0,-999.0,74,-99.99,,,-99.99,,2013-03-14 15:22:00,
2013-03-14 09:33:00,28.0,21.0,-100.00,North,-999,-999.0,-999.0,74,-99.99,,,-99.99,,2013-03-14 15:33:00,
2013-03-14 11:00:00,55.0,16.0,-100.00,North,-999,-999.0,-999.0,20,-99.99,,,-99.99,,2013-03-14 17:00:00,
2013-03-14 11:33:00,55.0,16.0,-100.00,North,-999,-999.0,-999.0,20,-99.99,,,-99.99,,2013-03-14 17:33:00,
2013-03-14 11:42:00,55.0,16.0,-100.00,North,-999,-999.0,-999.0,20,-99.99,,,-99.99,,2013-03-14 17:42:00,
2013-03-14 11:52:00,55.0,16.0,-100.00,North,-999,-999.0,-999.0,20,-99.99,,,-99.99,,2013-03-14 17:52:00,
2013-03-14 12:00:00,56.0,10.0,-100.00,North,-999,-999.0,-999.0,15,-99.99,,,-99.99,,2013-03-14 18:00:00,
2013-03-14 12:23:00,56.0,10.0,-100.00,North,-999,-999.0,-999.0,15,-99.99,,,-99.99,,2013-03-14 18:23:00,
2013-03-14 12:33:00,56.0,10.0,-100.00,North,-999,-999.0,-999.0,15,-99.99,,,-99.99,,2013-03-14 18:33:00,
2013-03-14 12:43:00,56.0,10.0,-100.00,North,-999,-999.0,-999.0,15,-99.99,,,-99.99,,2013-03-14 18:43:00,
2013-03-14 12:52:00,56.0,10.0,-100.00,North,-999,-999.0,-999.0,15,-99.99,,,-99.99,,2013-03-14 18:52:00,
2013-03-14 13:00:00,57.0,9.0,-100.00,North,-999,-999.0,-999.0,14,-99.99,,,-99.99,,2013-03-14 19:00:00,
2013-03-14 13:32:00,57.0,9.0,-100.00,North,-999,-999.0,-999.0,14,-99.99,,,-99.99,,2013-03-14 19:32:00,
2013-03-14 13:42:00,57.0,9.0,-100.00,North,-999,-999.0,-999.0,14,-99.99,,,-99.99,,2013-03-14 19:42:00,
2013-03-14 13:52:00,57.0,9.0,-100.00,North,-999,-999.0,-999.0,14,-99.99,,,-99.99,,2013-03-14 19:52:00,
2013-03-14 14:00:00,59.0,11.0,-100.00,North,-999,-999.0,-999.0,14,-99.99,,,-99.99,,2013-03-14 20:00:00,
2013-03-14 14:32:00,59.0,11.0,-100.00,North,-999,-999.0,-999.0,14,-99.99,,,-99.99,,2013-03-14 20:32:00,
2013-03-14 14:42:00,59.0,11.0,-100.00,North,-999,-999.0,-999.0,14,-99.99,,,-99.99,,2013-03-14 20:42:00,
2013-03-14 14:52:00,59.0,11.0,-100.00,North,-999,-999.0,-999.0,14,-99.99,,,-99.99,,2013-03-14 20:52:00,
2013-03-14 15:00:00,57.0,14.0,-100.00,North,-999,-999.0,-999.0,17,-99.99,,,-99.99,,2013-03-14 21:00:00,
2013-03-14 15:33:00,57.0,14.0,-100.00,North,-999,-999.0,-999.0,17,-99.99,,,-99.99,,2013-03-14 21:33:00,
2013-03-14 15:43:00,57.0,14.0,-100.00,North,-999,-999.0,-999.0,17,-99.99,,,-99.99,,2013-03-14 21:43:00,
2013-03-14 15:53:00,57.0,14.0,-100.00,North,-999,-999.0,-999.0,17,-99.99,,,-99.99,,2013-03-14 21:53:00,
2013-03-14 16:00:00,58.0,16.0,-100.00,North,-999,-999.0,-999.0,19,-99.99,,,-99.99,,2013-03-14 22:00:00,
2013-03-14 16:33:00,58.0,16.0,-100.00,North,-999,-999.0,-999.0,19,-99.99,,,-99.99,,2013-03-14 22:33:00,
2013-03-14 16:42:00,58.0,16.0,-100.00,North,-999,-999.0,-999.0,19,-99.99,,,-99.99,,2013-03-14 22:42:00,
2013-03-14 16:52:00,58.0,16.0,-100.00,North,-999,-999.0,-999.0,19,-99.99,,,-99.99,,2013-03-14 22:52:00,
2013-03-14 17:00:00,56.0,17.0,-100.00,North,-999,-999.0,-999.0,21,-99.99,,,-99.99,,2013-03-14 23:00:00,
2013-03-14 17:33:00,56.0,17.0,-100.00,North,-999,-999.0,-999.0,21,-99.99,,,-99.99,,2013-03-14 23:33:00,
2013-03-14 17:43:00,56.0,17.0,-100.00,North,-999,-999.0,-999.0,21,-99.99,,,-99.99,,2013-03-14 23:43:00,
2013-03-14 17:53:00,56.0,17.0,-100.00,North,-999,-999.0,-999.0,21,-99.99,,,-99.99,,2013-03-14 23:53:00,
2013-03-14 18:00:00,46.0,24.0,-100.00,North,-999,-999.0,-999.0,41,-99.99,,,-99.99,,2013-03-15 00:00:00,
2013-03-14 18:32:00,46.0,24.0,-100.00,North,-999,-999.0,-999.0,41,-99.99,,,-99.99,,2013-03-15 00:32:00,
2013-03-14 18:42:00,46.0,24.0,-100.00,North,-999,-999.0,-999.0,41,-99.99,,,-99.99,,2013-03-15 00:42:00,
2013-03-14 18:52:00,46.0,24.0,-100.00,North,-999,-999.0,-999.0,41,-99.99,,,-99.99,,2013-03-15 00:52:00,
2013-03-14 19:32:00,40.0,27.0,-100.00,North,-999,-999.0,-999.0,59,-99.99,,,-99.99,,2013-03-15 01:32:00,
2013-03-14 20:32:00,37.0,25.0,-100.00,North,-999,-999.0,-999.0,63,-99.99,,,-99.99,,2013-03-15 02:32:00,
2013-03-14 21:33:00,36.0,27.0,-100.00,North,-999,-999.0,-999.0,69,-99.99,,,-99.99,,2013-03-15 03:33:00,
2013-03-14 22:33:00,38.0,24.0,-100.00,North,-999,-999.0,-999.0,57,-99.99,,,-99.99,,2013-03-15 04:33:00,
2013-03-14 22:43:00,38.0,24.0,-100.00,North,-999,-999.0,-999.0,57,-99.99,,,-99.99,,2013-03-15 04:43:00,
2013-03-14 22:53:00,38.0,24.0,-100.00,North,-999,-999.0,-999.0,57,-99.99,,,-99.99,,2013-03-15 04:53:00,
2013-03-14 23:00:00,36.0,25.0,-100.00,North,-999,-999.0,-999.0,64,-99.99,,,-99.99,,2013-03-15 05:00:00,
2013-03-14 23:32:00,36.0,25.0,-100.00,North,-999,-999.0,-999.0,64,-99.99,,,-99.99,,2013-03-15 05:32:00,